createdAt,value
2018-11-02T00:01:42.609Z,1.47
2018-11-02T00:07:45.413Z,2.60
2018-11-02T00:13:49.080Z,3.23
2018-11-02T00:19:52.770Z,5.23
2018-11-02T00:25:55.383Z,1.40
2018-11-02T00:31:58.241Z,1.37
2018-11-02T00:38:00.992Z,2.30
2018-11-02T00:44:03.849Z,3.53
2018-11-02T00:50:09.329Z,2.77
2018-11-02T00:56:17.160Z,3.30
2018-11-02T01:02:19.632Z,2.20
2018-11-02T01:08:22.161Z,1.40
2018-11-02T01:14:25.059Z,1.23
2018-11-02T01:20:28.844Z,1.50
2018-11-02T01:26:32.186Z,2.10
2018-11-02T01:32:34.811Z,1.33
2018-11-02T01:38:37.483Z,1.17
2018-11-02T01:44:40.442Z,1.20
2018-11-02T01:50:43.815Z,1.60
2018-11-02T01:56:46.516Z,1.23
2018-11-02T02:02:49.161Z,2.30
2018-11-02T02:08:51.874Z,1.57
2018-11-02T02:14:54.935Z,1.17
2018-11-02T02:20:57.470Z,1.23
2018-11-02T02:27:00.008Z,1.20
2018-11-02T02:33:03.240Z,1.47
2018-11-02T02:39:07.644Z,1.70
2018-11-02T02:45:11.426Z,1.53
2018-11-02T02:51:14.958Z,1.63
2018-11-02T02:57:18.318Z,0.90
2018-11-02T03:03:21.701Z,1.03
2018-11-02T03:09:24.578Z,1.17
2018-11-02T03:15:27.010Z,1.50
2018-11-02T03:21:29.585Z,1.20
2018-11-02T03:27:33.239Z,0.90
2018-11-02T03:33:35.800Z,1.07
2018-11-02T03:39:38.263Z,1.10
2018-11-02T03:45:41.057Z,1.30
2018-11-02T03:51:43.579Z,1.07
2018-11-02T03:57:46.548Z,1.07
2018-11-02T04:03:49.196Z,0.73
2018-11-02T04:09:51.978Z,0.87
2018-11-02T04:15:54.533Z,1.00
2018-11-02T04:21:57.918Z,1.07
2018-11-02T04:28:00.484Z,0.90
2018-11-02T04:34:03.124Z,1.10
2018-11-02T04:40:06.448Z,1.27
2018-11-02T04:46:09.134Z,1.00
2018-11-02T04:52:18.784Z,0.70
2018-11-02T04:58:21.353Z,1.37
2018-11-02T05:04:24.570Z,2.10
2018-11-02T05:10:27.346Z,0.90
2018-11-02T05:16:30.626Z,0.83
2018-11-02T05:22:33.753Z,1.00
2018-11-02T05:28:42.974Z,1.50
2018-11-02T05:34:51.053Z,1.03
2018-11-02T05:40:54.587Z,0.80
2018-11-02T05:46:58.309Z,0.83
2018-11-02T05:53:02.068Z,3.03
2018-11-02T05:59:05.402Z,1.07
2018-11-02T06:05:09.502Z,5.57
2018-11-02T06:11:12.357Z,5.07
2018-11-02T06:17:14.862Z,6.80
2018-11-02T06:23:17.915Z,3.70
2018-11-02T06:29:20.389Z,6.07
2018-11-02T06:35:22.789Z,4.10
2018-11-02T06:41:25.373Z,4.23
2018-11-02T06:47:28.251Z,7.30
2018-11-02T06:53:30.769Z,6.93
2018-11-02T06:59:37.158Z,3.43
2018-11-02T07:05:39.897Z,3.50
2018-11-02T07:11:42.459Z,7.23
2018-11-02T07:17:46.371Z,3.93
2018-11-02T07:23:50.075Z,7.67
2018-11-02T07:29:52.809Z,11.53
2018-11-02T07:35:55.350Z,9.97
2018-11-02T07:41:58.644Z,15.07
2018-11-02T07:48:01.028Z,13.40
2018-11-02T07:54:04.646Z,8.90
2018-11-02T08:00:10.711Z,15.10
2018-11-02T08:06:13.399Z,16.57
2018-11-02T08:12:16.668Z,16.10
2018-11-02T08:18:19.466Z,9.47
2018-11-02T08:24:21.948Z,9.27
2018-11-02T08:30:24.456Z,11.93
2018-11-02T08:36:26.909Z,10.17
2018-11-02T08:42:29.486Z,9.27
2018-11-02T08:48:32.317Z,9.13
2018-11-02T08:54:35.945Z,7.73
2018-11-02T09:00:38.701Z,10.10
2018-11-02T09:06:41.256Z,6.40
2018-11-02T09:12:43.887Z,8.70
2018-11-02T09:18:47.401Z,8.87
2018-11-02T09:24:51.169Z,4.90
2018-11-02T09:30:54.035Z,9.93
2018-11-02T09:36:56.698Z,10.07
2018-11-02T09:42:59.617Z,13.00
2018-11-02T09:49:02.332Z,9.50
2018-11-02T09:55:05.781Z,5.77
2018-11-02T10:01:08.746Z,11.00
2018-11-02T10:07:11.599Z,8.20
2018-11-02T10:13:14.545Z,9.37
2018-11-02T10:19:17.039Z,5.07
2018-11-02T10:25:19.591Z,6.77
2018-11-02T10:31:22.172Z,8.33
2018-11-02T10:37:25.042Z,7.57
2018-11-02T10:43:29.312Z,7.03
2018-11-02T10:49:33.204Z,4.67
2018-11-02T10:55:35.608Z,6.93
2018-11-02T11:01:43.876Z,5.83
2018-11-02T11:07:46.850Z,12.93
2018-11-02T11:13:49.649Z,7.07
2018-11-02T11:19:52.146Z,9.07
2018-11-02T11:25:54.758Z,7.67
2018-11-02T11:31:57.346Z,7.83
2018-11-02T11:37:59.962Z,5.67
2018-11-02T11:44:02.610Z,8.43
2018-11-02T11:50:10.152Z,7.23
2018-11-02T11:56:12.837Z,4.80
2018-11-02T12:02:15.662Z,5.50
2018-11-02T12:08:18.691Z,8.83
2018-11-02T12:14:21.214Z,7.70
2018-11-02T12:20:26.799Z,7.27
2018-11-02T12:26:29.441Z,5.23
2018-11-02T12:32:32.006Z,6.93
2018-11-02T12:38:34.725Z,7.03
2018-11-02T12:44:37.510Z,2.97
2018-11-02T12:50:41.148Z,5.77
2018-11-02T12:56:44.178Z,6.77
2018-11-02T13:02:47.821Z,3.00
2018-11-02T13:08:50.853Z,2.67
2018-11-02T13:14:53.519Z,5.43
2018-11-02T13:20:56.438Z,4.83
2018-11-02T13:27:00.097Z,3.73
2018-11-02T13:33:03.405Z,19.37
2018-11-02T13:39:09.350Z,9.80
2018-11-02T13:45:13.427Z,7.40
2018-11-02T13:51:16.246Z,5.77
2018-11-02T13:57:20.103Z,2.83
2018-11-02T14:03:22.870Z,5.63
2018-11-02T14:09:25.329Z,7.47
2018-11-02T14:15:27.789Z,3.90
2018-11-02T14:21:30.353Z,4.93
2018-11-02T14:27:33.479Z,4.13
2018-11-02T14:33:36.166Z,3.47
2018-11-02T14:39:39.714Z,5.73
2018-11-02T14:45:42.639Z,6.40
2018-11-02T14:51:46.184Z,7.73
2018-11-02T14:57:48.824Z,6.63
2018-11-02T15:03:51.536Z,6.60
2018-11-02T15:09:54.047Z,15.53
2018-11-02T15:15:56.824Z,7.40
2018-11-02T15:21:59.373Z,10.53
2018-11-02T15:28:01.956Z,3.00
2018-11-02T15:34:05.045Z,5.00
2018-11-02T15:40:09.410Z,6.60
2018-11-02T15:46:13.363Z,2.83
2018-11-02T15:52:16.653Z,3.67
2018-11-02T15:58:20.414Z,4.47
2018-11-02T16:04:22.971Z,2.53
2018-11-02T16:10:25.457Z,4.57
2018-11-02T16:16:28.004Z,3.23
2018-11-02T16:22:30.602Z,4.00
2018-11-02T16:28:33.714Z,4.10
2018-11-02T16:34:36.318Z,3.00
2018-11-02T16:40:40.154Z,4.97
2018-11-02T16:46:43.545Z,7.10
2018-11-02T16:52:46.407Z,3.47
2018-11-02T16:58:50.246Z,6.63
2018-11-02T17:04:53.747Z,3.47
2018-11-02T17:10:58.080Z,3.60
2018-11-02T17:17:00.926Z,4.90
2018-11-02T17:23:03.668Z,3.80
2018-11-02T17:29:06.313Z,3.93
2018-11-02T17:37:43.804Z,5.53
2018-11-02T17:43:46.397Z,4.60
2018-11-02T17:49:49.746Z,2.87
2018-11-02T17:55:52.595Z,5.40
2018-11-02T18:01:56.542Z,3.53
2018-11-02T18:07:59.186Z,2.57
2018-11-02T18:14:01.702Z,2.10
2018-11-02T18:20:06.019Z,1.70
2018-11-02T18:26:08.508Z,2.50
2018-11-02T18:32:11.077Z,7.53
2018-11-02T18:38:14.956Z,5.67
2018-11-02T18:44:17.545Z,2.30
2018-11-02T18:50:21.298Z,2.70
2018-11-02T18:56:23.989Z,5.53
2018-11-02T19:02:26.480Z,2.57
2018-11-02T19:08:29.025Z,2.07
2018-11-02T19:14:31.550Z,2.50
2018-11-02T19:20:34.228Z,1.77
2018-11-02T19:26:36.691Z,2.43
2018-11-02T19:32:39.285Z,3.27
2018-11-02T19:38:42.020Z,2.30
2018-11-02T19:44:44.440Z,1.73
2018-11-02T19:50:47.187Z,1.50
2018-11-02T19:56:49.840Z,1.60
2018-11-02T20:02:52.576Z,2.23
2018-11-02T20:08:56.439Z,1.97
2018-11-02T20:14:58.917Z,1.70
2018-11-02T20:21:01.711Z,2.70
2018-11-02T20:27:05.119Z,1.60
2018-11-02T20:33:07.572Z,4.60
2018-11-02T20:39:11.181Z,3.00
2018-11-02T20:45:13.908Z,1.87
2018-11-02T20:51:17.134Z,4.47
2018-11-02T20:57:19.732Z,2.20
2018-11-02T21:03:22.663Z,1.53
2018-11-02T21:09:26.713Z,8.70
2018-11-02T21:15:29.230Z,3.03
2018-11-02T21:21:31.817Z,2.30
2018-11-02T21:27:34.774Z,3.27
2018-11-02T21:33:37.497Z,7.07
2018-11-02T21:39:40.730Z,6.80
2018-11-02T21:45:43.188Z,1.47
2018-11-02T21:51:45.934Z,2.17
2018-11-02T21:57:49.697Z,1.80
2018-11-02T22:03:52.879Z,2.13
2018-11-02T22:09:55.973Z,1.50
2018-11-02T22:15:59.090Z,2.93
2018-11-02T22:22:01.631Z,4.40
2018-11-02T22:28:04.181Z,2.43
2018-11-02T22:34:06.796Z,1.70
2018-11-02T22:40:10.578Z,2.50
2018-11-02T22:46:13.020Z,2.60
2018-11-02T22:52:15.528Z,1.70
2018-11-02T22:58:18.062Z,1.70
2018-11-02T23:04:20.875Z,2.50
2018-11-02T23:10:23.637Z,2.60
2018-11-02T23:16:27.369Z,4.00
2018-11-02T23:22:30.184Z,3.17
2018-11-02T23:28:32.766Z,4.37
2018-11-02T23:34:35.698Z,2.23
2018-11-02T23:40:38.415Z,3.47
2018-11-02T23:46:41.511Z,2.00
2018-11-02T23:52:44.230Z,5.10
2018-11-02T23:58:53.002Z,1.87
